sensor_id;sensor_type;location;lat;lon;timestamp;P1;durP1;ratioP1;P2;durP2;ratioP2
20497;SDS011;10407;53.238;10.448;2023-02-01T00:00:33;89.67;;;7.17;;
20497;SDS011;10407;53.238;10.448;2023-02-01T00:03:01;90.17;;;7.40;;
20497;SDS011;10407;53.238;10.448;2023-02-01T00:05:30;93.80;;;8.03;;
20497;SDS011;10407;53.238;10.448;2023-02-01T00:07:58;95.83;;;8.33;;
20497;SDS011;10407;53.238;10.448;2023-02-01T00:10:25;84.13;;;7.10;;
20497;SDS011;10407;53.238;10.448;2023-02-01T00:12:53;91.17;;;6.63;;
20497;SDS011;10407;53.238;10.448;2023-02-01T00:15:20;86.27;;;5.90;;
20497;SDS011;10407;53.238;10.448;2023-02-01T00:17:52;81.47;;;6.20;;
20497;SDS011;10407;53.238;10.448;2023-02-01T00:20:20;87.10;;;6.27;;
20497;SDS011;10407;53.238;10.448;2023-02-01T00:22:48;82.90;;;7.27;;
20497;SDS011;10407;53.238;10.448;2023-02-01T00:25:15;91.60;;;7.30;;
20497;SDS011;10407;53.238;10.448;2023-02-01T00:27:43;96.73;;;6.67;;
20497;SDS011;10407;53.238;10.448;2023-02-01T00:30:14;87.33;;;6.77;;
20497;SDS011;10407;53.238;10.448;2023-02-01T00:32:41;89.23;;;7.73;;
20497;SDS011;10407;53.238;10.448;2023-02-01T00:35:09;97.90;;;8.20;;
20497;SDS011;10407;53.238;10.448;2023-02-01T00:37:37;96.57;;;6.70;;
20497;SDS011;10407;53.238;10.448;2023-02-01T00:40:05;96.80;;;8.50;;
20497;SDS011;10407;53.238;10.448;2023-02-01T00:42:34;91.77;;;7.80;;
20497;SDS011;10407;53.238;10.448;2023-02-01T00:45:01;89.90;;;7.23;;
20497;SDS011;10407;53.238;10.448;2023-02-01T00:47:29;95.57;;;7.97;;
20497;SDS011;10407;53.238;10.448;2023-02-01T00:49:56;90.47;;;6.30;;
20497;SDS011;10407;53.238;10.448;2023-02-01T00:52:24;97.77;;;8.40;;
20497;SDS011;10407;53.238;10.448;2023-02-01T00:54:51;97.53;;;7.97;;
20497;SDS011;10407;53.238;10.448;2023-02-01T00:57:19;94.23;;;9.30;;
20497;SDS011;10407;53.238;10.448;2023-02-01T00:59:46;89.13;;;7.30;;
20497;SDS011;10407;53.238;10.448;2023-02-01T01:02:14;98.07;;;8.53;;
20497;SDS011;10407;53.238;10.448;2023-02-01T01:04:41;108.10;;;8.73;;
20497;SDS011;10407;53.238;10.448;2023-02-01T01:07:09;93.73;;;7.60;;
20497;SDS011;10407;53.238;10.448;2023-02-01T01:09:36;89.70;;;7.87;;
20497;SDS011;10407;53.238;10.448;2023-02-01T01:12:04;96.87;;;8.10;;
20497;SDS011;10407;53.238;10.448;2023-02-01T01:14:32;93.87;;;8.17;;
20497;SDS011;10407;53.238;10.448;2023-02-01T01:16:59;94.17;;;8.33;;
20497;SDS011;10407;53.238;10.448;2023-02-01T01:19:27;96.67;;;8.40;;
20497;SDS011;10407;53.238;10.448;2023-02-01T01:21:54;97.13;;;6.23;;
20497;SDS011;10407;53.238;10.448;2023-02-01T01:24:22;101.47;;;7.43;;
20497;SDS011;10407;53.238;10.448;2023-02-01T01:26:49;97.93;;;6.80;;
20497;SDS011;10407;53.238;10.448;2023-02-01T01:29:17;90.67;;;6.80;;
20497;SDS011;10407;53.238;10.448;2023-02-01T01:31:45;99.30;;;6.90;;
20497;SDS011;10407;53.238;10.448;2023-02-01T01:34:12;97.10;;;8.50;;
20497;SDS011;10407;53.238;10.448;2023-02-01T01:36:40;92.90;;;7.07;;
20497;SDS011;10407;53.238;10.448;2023-02-01T01:39:07;93.07;;;8.50;;
20497;SDS011;10407;53.238;10.448;2023-02-01T01:41:35;90.37;;;8.57;;
20497;SDS011;10407;53.238;10.448;2023-02-01T01:44:03;96.17;;;8.67;;
20497;SDS011;10407;53.238;10.448;2023-02-01T01:46:36;95.13;;;8.37;;
20497;SDS011;10407;53.238;10.448;2023-02-01T01:49:10;92.13;;;7.90;;
20497;SDS011;10407;53.238;10.448;2023-02-01T01:51:44;88.93;;;7.47;;
20497;SDS011;10407;53.238;10.448;2023-02-01T01:54:17;88.63;;;8.10;;
20497;SDS011;10407;53.238;10.448;2023-02-01T01:56:51;96.60;;;8.20;;
20497;SDS011;10407;53.238;10.448;2023-02-01T01:59:20;107.97;;;8.50;;
20497;SDS011;10407;53.238;10.448;2023-02-01T02:01:50;91.00;;;6.77;;
20497;SDS011;10407;53.238;10.448;2023-02-01T02:04:18;95.50;;;7.27;;
20497;SDS011;10407;53.238;10.448;2023-02-01T02:06:54;96.67;;;9.07;;
20497;SDS011;10407;53.238;10.448;2023-02-01T02:09:23;95.43;;;8.37;;
20497;SDS011;10407;53.238;10.448;2023-02-01T02:11:51;92.53;;;7.03;;
20497;SDS011;10407;53.238;10.448;2023-02-01T02:14:19;87.70;;;8.07;;
20497;SDS011;10407;53.238;10.448;2023-02-01T02:17:05;103.03;;;9.67;;
20497;SDS011;10407;53.238;10.448;2023-02-01T02:19:52;97.03;;;9.27;;
20497;SDS011;10407;53.238;10.448;2023-02-01T02:22:58;96.73;;;7.00;;
20497;SDS011;10407;53.238;10.448;2023-02-01T02:25:40;102.17;;;7.47;;
20497;SDS011;10407;53.238;10.448;2023-02-01T02:33:57;114.27;;;8.77;;
20497;SDS011;10407;53.238;10.448;2023-02-01T02:36:32;106.03;;;10.60;;
20497;SDS011;10407;53.238;10.448;2023-02-01T02:44:47;92.60;;;8.77;;
20497;SDS011;10407;53.238;10.448;2023-02-01T02:47:42;98.70;;;7.70;;
20497;SDS011;10407;53.238;10.448;2023-02-01T02:50:34;95.50;;;8.33;;
20497;SDS011;10407;53.238;10.448;2023-02-01T02:53:25;106.47;;;7.87;;
20497;SDS011;10407;53.238;10.448;2023-02-01T02:56:21;105.73;;;8.27;;
20497;SDS011;10407;53.238;10.448;2023-02-01T02:59:09;117.37;;;9.90;;
20497;SDS011;10407;53.238;10.448;2023-02-01T03:01:58;95.13;;;7.50;;
20497;SDS011;10407;53.238;10.448;2023-02-01T03:04:43;90.80;;;6.80;;
20497;SDS011;10407;53.238;10.448;2023-02-01T03:09:41;87.93;;;7.43;;
20497;SDS011;10407;53.238;10.448;2023-02-01T03:12:12;95.70;;;7.93;;
20497;SDS011;10407;53.238;10.448;2023-02-01T03:15:03;91.43;;;7.30;;
20497;SDS011;10407;53.238;10.448;2023-02-01T03:17:32;100.70;;;9.77;;
20497;SDS011;10407;53.238;10.448;2023-02-01T03:20:01;94.63;;;8.40;;
20497;SDS011;10407;53.238;10.448;2023-02-01T03:22:32;96.93;;;7.60;;
20497;SDS011;10407;53.238;10.448;2023-02-01T03:25:06;93.87;;;7.87;;
20497;SDS011;10407;53.238;10.448;2023-02-01T03:27:42;90.30;;;7.20;;
20497;SDS011;10407;53.238;10.448;2023-02-01T03:30:20;98.33;;;7.23;;
20497;SDS011;10407;53.238;10.448;2023-02-01T03:32:49;92.67;;;9.10;;
20497;SDS011;10407;53.238;10.448;2023-02-01T03:35:30;98.50;;;7.57;;
20497;SDS011;10407;53.238;10.448;2023-02-01T03:38:06;97.67;;;7.83;;
20497;SDS011;10407;53.238;10.448;2023-02-01T03:40:32;88.63;;;7.70;;
20497;SDS011;10407;53.238;10.448;2023-02-01T03:43:04;92.13;;;7.27;;
20497;SDS011;10407;53.238;10.448;2023-02-01T03:45:35;85.93;;;7.40;;
20497;SDS011;10407;53.238;10.448;2023-02-01T03:48:06;85.70;;;7.03;;
20497;SDS011;10407;53.238;10.448;2023-02-01T03:50:35;87.97;;;6.80;;
20497;SDS011;10407;53.238;10.448;2023-02-01T03:53:13;92.27;;;7.00;;
20497;SDS011;10407;53.238;10.448;2023-02-01T03:55:40;88.97;;;7.10;;
20497;SDS011;10407;53.238;10.448;2023-02-01T03:58:09;93.07;;;6.40;;
20497;SDS011;10407;53.238;10.448;2023-02-01T04:00:46;83.50;;;7.17;;
20497;SDS011;10407;53.238;10.448;2023-02-01T04:03:18;84.33;;;5.40;;
20497;SDS011;10407;53.238;10.448;2023-02-01T04:05:48;79.80;;;6.00;;
20497;SDS011;10407;53.238;10.448;2023-02-01T04:08:16;77.53;;;4.70;;
20497;SDS011;10407;53.238;10.448;2023-02-01T04:10:46;74.20;;;4.57;;
20497;SDS011;10407;53.238;10.448;2023-02-01T04:13:13;82.77;;;5.43;;
20497;SDS011;10407;53.238;10.448;2023-02-01T04:15:41;76.30;;;5.23;;
20497;SDS011;10407;53.238;10.448;2023-02-01T04:18:08;74.43;;;4.50;;
20497;SDS011;10407;53.238;10.448;2023-02-01T04:20:36;75.50;;;5.00;;
20497;SDS011;10407;53.238;10.448;2023-02-01T04:23:03;76.00;;;4.43;;
20497;SDS011;10407;53.238;10.448;2023-02-01T04:25:31;75.03;;;4.60;;
20497;SDS011;10407;53.238;10.448;2023-02-01T04:27:58;72.47;;;4.20;;
20497;SDS011;10407;53.238;10.448;2023-02-01T04:30:26;76.07;;;4.17;;
20497;SDS011;10407;53.238;10.448;2023-02-01T04:32:54;73.47;;;4.20;;
20497;SDS011;10407;53.238;10.448;2023-02-01T04:35:21;74.70;;;4.70;;
20497;SDS011;10407;53.238;10.448;2023-02-01T04:37:49;73.47;;;4.50;;
20497;SDS011;10407;53.238;10.448;2023-02-01T04:40:16;76.93;;;4.43;;
20497;SDS011;10407;53.238;10.448;2023-02-01T04:42:44;73.97;;;4.40;;
20497;SDS011;10407;53.238;10.448;2023-02-01T04:45:11;72.43;;;4.63;;
20497;SDS011;10407;53.238;10.448;2023-02-01T04:47:39;78.83;;;4.23;;
20497;SDS011;10407;53.238;10.448;2023-02-01T04:50:07;75.80;;;4.60;;
20497;SDS011;10407;53.238;10.448;2023-02-01T04:52:36;74.97;;;4.77;;
20497;SDS011;10407;53.238;10.448;2023-02-01T04:55:04;75.50;;;5.00;;
20497;SDS011;10407;53.238;10.448;2023-02-01T04:57:32;74.73;;;5.20;;
20497;SDS011;10407;53.238;10.448;2023-02-01T04:59:59;78.87;;;5.20;;
20497;SDS011;10407;53.238;10.448;2023-02-01T05:02:27;73.87;;;5.47;;
20497;SDS011;10407;53.238;10.448;2023-02-01T05:04:54;76.20;;;4.80;;
20497;SDS011;10407;53.238;10.448;2023-02-01T05:07:22;73.20;;;5.67;;
20497;SDS011;10407;53.238;10.448;2023-02-01T05:09:50;77.60;;;4.57;;
20497;SDS011;10407;53.238;10.448;2023-02-01T05:12:17;78.20;;;4.63;;
20497;SDS011;10407;53.238;10.448;2023-02-01T05:15:03;74.10;;;5.00;;
20497;SDS011;10407;53.238;10.448;2023-02-01T05:17:31;74.23;;;5.00;;
20497;SDS011;10407;53.238;10.448;2023-02-01T05:19:59;79.03;;;5.30;;
20497;SDS011;10407;53.238;10.448;2023-02-01T05:22:26;73.37;;;4.73;;
20497;SDS011;10407;53.238;10.448;2023-02-01T05:24:54;75.17;;;4.77;;
20497;SDS011;10407;53.238;10.448;2023-02-01T05:27:21;80.17;;;4.93;;
20497;SDS011;10407;53.238;10.448;2023-02-01T05:29:49;74.27;;;4.70;;
20497;SDS011;10407;53.238;10.448;2023-02-01T05:32:16;76.40;;;4.40;;
20497;SDS011;10407;53.238;10.448;2023-02-01T05:34:44;73.93;;;4.50;;
20497;SDS011;10407;53.238;10.448;2023-02-01T05:37:11;72.20;;;4.50;;
20497;SDS011;10407;53.238;10.448;2023-02-01T05:39:39;72.67;;;3.90;;
20497;SDS011;10407;53.238;10.448;2023-02-01T05:42:06;74.93;;;4.57;;
20497;SDS011;10407;53.238;10.448;2023-02-01T05:44:33;76.70;;;4.77;;
20497;SDS011;10407;53.238;10.448;2023-02-01T05:47:01;78.43;;;4.70;;
20497;SDS011;10407;53.238;10.448;2023-02-01T05:49:28;74.13;;;4.43;;
20497;SDS011;10407;53.238;10.448;2023-02-01T05:51:56;74.17;;;4.57;;
20497;SDS011;10407;53.238;10.448;2023-02-01T05:54:24;73.30;;;4.30;;
20497;SDS011;10407;53.238;10.448;2023-02-01T05:56:51;74.13;;;4.97;;
20497;SDS011;10407;53.238;10.448;2023-02-01T05:59:18;72.67;;;4.93;;
20497;SDS011;10407;53.238;10.448;2023-02-01T06:01:46;73.00;;;4.23;;
20497;SDS011;10407;53.238;10.448;2023-02-01T06:04:14;72.27;;;4.70;;
20497;SDS011;10407;53.238;10.448;2023-02-01T06:06:41;72.47;;;4.53;;
20497;SDS011;10407;53.238;10.448;2023-02-01T06:09:09;70.90;;;4.17;;
20497;SDS011;10407;53.238;10.448;2023-02-01T06:11:36;72.47;;;4.30;;
20497;SDS011;10407;53.238;10.448;2023-02-01T06:14:04;73.53;;;5.90;;
20497;SDS011;10407;53.238;10.448;2023-02-01T06:16:33;72.87;;;5.43;;
20497;SDS011;10407;53.238;10.448;2023-02-01T06:19:00;73.00;;;4.93;;
20497;SDS011;10407;53.238;10.448;2023-02-01T06:21:28;71.60;;;4.10;;
20497;SDS011;10407;53.238;10.448;2023-02-01T06:23:55;71.20;;;4.07;;
20497;SDS011;10407;53.238;10.448;2023-02-01T06:26:24;72.20;;;4.57;;
20497;SDS011;10407;53.238;10.448;2023-02-01T06:28:53;71.07;;;3.90;;
20497;SDS011;10407;53.238;10.448;2023-02-01T06:31:21;70.90;;;3.97;;
20497;SDS011;10407;53.238;10.448;2023-02-01T06:33:51;71.37;;;4.73;;
20497;SDS011;10407;53.238;10.448;2023-02-01T06:36:19;71.50;;;4.10;;
20497;SDS011;10407;53.238;10.448;2023-02-01T06:38:47;71.20;;;4.23;;
20497;SDS011;10407;53.238;10.448;2023-02-01T06:41:15;72.10;;;5.37;;
20497;SDS011;10407;53.238;10.448;2023-02-01T06:43:42;72.40;;;4.97;;
20497;SDS011;10407;53.238;10.448;2023-02-01T06:46:12;71.37;;;3.93;;
20497;SDS011;10407;53.238;10.448;2023-02-01T06:48:40;73.30;;;4.80;;
20497;SDS011;10407;53.238;10.448;2023-02-01T06:51:21;71.10;;;3.93;;
20497;SDS011;10407;53.238;10.448;2023-02-01T06:53:50;71.90;;;4.80;;
20497;SDS011;10407;53.238;10.448;2023-02-01T06:56:18;71.37;;;4.40;;
20497;SDS011;10407;53.238;10.448;2023-02-01T06:58:46;71.90;;;4.43;;
20497;SDS011;10407;53.238;10.448;2023-02-01T07:01:14;73.13;;;4.30;;
20497;SDS011;10407;53.238;10.448;2023-02-01T07:03:42;75.20;;;4.87;;
20497;SDS011;10407;53.238;10.448;2023-02-01T07:06:11;75.60;;;5.73;;
20497;SDS011;10407;53.238;10.448;2023-02-01T07:08:39;72.00;;;4.40;;
20497;SDS011;10407;53.238;10.448;2023-02-01T07:11:07;72.27;;;4.20;;
20497;SDS011;10407;53.238;10.448;2023-02-01T07:13:36;71.73;;;4.20;;
20497;SDS011;10407;53.238;10.448;2023-02-01T07:16:06;73.43;;;4.73;;
20497;SDS011;10407;53.238;10.448;2023-02-01T07:18:35;73.30;;;4.53;;
20497;SDS011;10407;53.238;10.448;2023-02-01T07:21:03;74.90;;;4.00;;
20497;SDS011;10407;53.238;10.448;2023-02-01T07:23:31;75.10;;;4.30;;
20497;SDS011;10407;53.238;10.448;2023-02-01T07:26:00;74.20;;;5.27;;
20497;SDS011;10407;53.238;10.448;2023-02-01T07:28:30;72.80;;;4.90;;
20497;SDS011;10407;53.238;10.448;2023-02-01T07:31:02;72.43;;;4.43;;
20497;SDS011;10407;53.238;10.448;2023-02-01T07:33:32;73.13;;;4.90;;
20497;SDS011;10407;53.238;10.448;2023-02-01T07:36:06;72.67;;;5.00;;
20497;SDS011;10407;53.238;10.448;2023-02-01T07:38:30;75.47;;;4.03;;
20497;SDS011;10407;53.238;10.448;2023-02-01T07:40:59;73.77;;;4.37;;
20497;SDS011;10407;53.238;10.448;2023-02-01T07:43:27;72.67;;;4.70;;
20497;SDS011;10407;53.238;10.448;2023-02-01T07:45:56;78.97;;;5.63;;
20497;SDS011;10407;53.238;10.448;2023-02-01T07:48:24;75.60;;;5.13;;
20497;SDS011;10407;53.238;10.448;2023-02-01T07:53:29;80.73;;;4.90;;
20497;SDS011;10407;53.238;10.448;2023-02-01T07:55:58;78.03;;;5.30;;
20497;SDS011;10407;53.238;10.448;2023-02-01T07:58:26;80.30;;;6.50;;
20497;SDS011;10407;53.238;10.448;2023-02-01T08:00:55;81.07;;;5.77;;
20497;SDS011;10407;53.238;10.448;2023-02-01T08:03:41;80.30;;;5.50;;
20497;SDS011;10407;53.238;10.448;2023-02-01T08:06:08;81.30;;;5.60;;
20497;SDS011;10407;53.238;10.448;2023-02-01T08:08:36;80.83;;;5.80;;
20497;SDS011;10407;53.238;10.448;2023-02-01T08:11:04;88.13;;;6.20;;
20497;SDS011;10407;53.238;10.448;2023-02-01T08:13:33;83.40;;;7.13;;
20497;SDS011;10407;53.238;10.448;2023-02-01T08:16:02;87.13;;;6.40;;
20497;SDS011;10407;53.238;10.448;2023-02-01T08:18:31;89.07;;;6.07;;
20497;SDS011;10407;53.238;10.448;2023-02-01T08:21:10;93.80;;;7.97;;
20497;SDS011;10407;53.238;10.448;2023-02-01T08:23:39;90.80;;;7.30;;
20497;SDS011;10407;53.238;10.448;2023-02-01T08:26:11;95.17;;;7.10;;
20497;SDS011;10407;53.238;10.448;2023-02-01T08:28:42;80.23;;;5.40;;
20497;SDS011;10407;53.238;10.448;2023-02-01T08:31:12;84.47;;;6.70;;
20497;SDS011;10407;53.238;10.448;2023-02-01T08:33:42;79.60;;;6.30;;
20497;SDS011;10407;53.238;10.448;2023-02-01T08:36:10;84.87;;;6.53;;
20497;SDS011;10407;53.238;10.448;2023-02-01T08:38:38;82.97;;;6.60;;
20497;SDS011;10407;53.238;10.448;2023-02-01T08:41:10;86.90;;;6.87;;
20497;SDS011;10407;53.238;10.448;2023-02-01T08:43:41;85.30;;;6.00;;
20497;SDS011;10407;53.238;10.448;2023-02-01T08:46:09;86.80;;;7.20;;
20497;SDS011;10407;53.238;10.448;2023-02-01T08:48:37;90.50;;;8.63;;
20497;SDS011;10407;53.238;10.448;2023-02-01T08:51:06;96.47;;;8.47;;
20497;SDS011;10407;53.238;10.448;2023-02-01T08:53:36;83.37;;;6.60;;
20497;SDS011;10407;53.238;10.448;2023-02-01T08:56:06;91.30;;;8.10;;
20497;SDS011;10407;53.238;10.448;2023-02-01T08:58:35;92.23;;;8.97;;
20497;SDS011;10407;53.238;10.448;2023-02-01T09:01:03;87.80;;;8.00;;
20497;SDS011;10407;53.238;10.448;2023-02-01T09:03:32;81.60;;;7.10;;
20497;SDS011;10407;53.238;10.448;2023-02-01T09:06:06;91.13;;;6.50;;
20497;SDS011;10407;53.238;10.448;2023-02-01T09:08:36;87.30;;;6.20;;
20497;SDS011;10407;53.238;10.448;2023-02-01T09:11:06;89.33;;;6.10;;
20497;SDS011;10407;53.238;10.448;2023-02-01T09:13:35;92.03;;;6.50;;
20497;SDS011;10407;53.238;10.448;2023-02-01T09:16:03;92.50;;;7.73;;
20497;SDS011;10407;53.238;10.448;2023-02-01T09:18:31;86.17;;;6.43;;
20497;SDS011;10407;53.238;10.448;2023-02-01T09:20:58;89.23;;;6.70;;
20497;SDS011;10407;53.238;10.448;2023-02-01T09:23:27;84.47;;;6.87;;
20497;SDS011;10407;53.238;10.448;2023-02-01T09:25:58;86.57;;;6.30;;
20497;SDS011;10407;53.238;10.448;2023-02-01T09:28:28;91.97;;;7.73;;
20497;SDS011;10407;53.238;10.448;2023-02-01T09:30:59;85.70;;;7.80;;
20497;SDS011;10407;53.238;10.448;2023-02-01T09:33:27;90.23;;;5.87;;
20497;SDS011;10407;53.238;10.448;2023-02-01T09:35:59;91.37;;;8.13;;
20497;SDS011;10407;53.238;10.448;2023-02-01T09:38:28;90.30;;;6.53;;
20497;SDS011;10407;53.238;10.448;2023-02-01T09:40:56;99.70;;;7.70;;
20497;SDS011;10407;53.238;10.448;2023-02-01T09:46:31;80.20;;;5.93;;
20497;SDS011;10407;53.238;10.448;2023-02-01T09:49:09;90.30;;;8.83;;
20497;SDS011;10407;53.238;10.448;2023-02-01T09:51:35;87.67;;;7.17;;
20497;SDS011;10407;53.238;10.448;2023-02-01T09:54:12;88.77;;;7.60;;
20497;SDS011;10407;53.238;10.448;2023-02-01T09:57:00;81.73;;;7.30;;
20497;SDS011;10407;53.238;10.448;2023-02-01T10:00:22;96.43;;;7.37;;
20497;SDS011;10407;53.238;10.448;2023-02-01T10:02:21;90.27;;;7.60;;
20497;SDS011;10407;53.238;10.448;2023-02-01T10:04:52;84.43;;;6.77;;
20497;SDS011;10407;53.238;10.448;2023-02-01T10:10:06;86.00;;;6.80;;
20497;SDS011;10407;53.238;10.448;2023-02-01T10:12:54;89.30;;;6.97;;
20497;SDS011;10407;53.238;10.448;2023-02-01T10:18:11;89.97;;;9.17;;
20497;SDS011;10407;53.238;10.448;2023-02-01T10:20:52;95.33;;;10.00;;
20497;SDS011;10407;53.238;10.448;2023-02-01T10:26:32;87.73;;;8.10;;
20497;SDS011;10407;53.238;10.448;2023-02-01T10:29:03;93.83;;;7.87;;
20497;SDS011;10407;53.238;10.448;2023-02-01T10:31:35;100.03;;;7.83;;
20497;SDS011;10407;53.238;10.448;2023-02-01T10:34:23;84.40;;;7.30;;
20497;SDS011;10407;53.238;10.448;2023-02-01T10:39:25;88.37;;;7.47;;
20497;SDS011;10407;53.238;10.448;2023-02-01T10:41:54;92.10;;;7.97;;
20497;SDS011;10407;53.238;10.448;2023-02-01T10:44:26;83.90;;;5.83;;
20497;SDS011;10407;53.238;10.448;2023-02-01T10:46:55;88.67;;;7.07;;
20497;SDS011;10407;53.238;10.448;2023-02-01T10:49:32;96.83;;;7.00;;
20497;SDS011;10407;53.238;10.448;2023-02-01T10:52:06;88.00;;;6.70;;
20497;SDS011;10407;53.238;10.448;2023-02-01T10:54:44;88.37;;;8.47;;
20497;SDS011;10407;53.238;10.448;2023-02-01T10:57:22;90.00;;;7.73;;
20497;SDS011;10407;53.238;10.448;2023-02-01T10:59:54;87.60;;;7.20;;
20497;SDS011;10407;53.238;10.448;2023-02-01T11:02:26;91.80;;;6.70;;
20497;SDS011;10407;53.238;10.448;2023-02-01T11:05:05;90.37;;;8.07;;
20497;SDS011;10407;53.238;10.448;2023-02-01T11:07:39;84.03;;;5.80;;
20497;SDS011;10407;53.238;10.448;2023-02-01T11:10:13;94.53;;;7.20;;
20497;SDS011;10407;53.238;10.448;2023-02-01T11:12:40;87.77;;;7.77;;
20497;SDS011;10407;53.238;10.448;2023-02-01T11:17:48;86.90;;;6.80;;
20497;SDS011;10407;53.238;10.448;2023-02-01T11:20:19;86.70;;;6.50;;
20497;SDS011;10407;53.238;10.448;2023-02-01T11:22:52;88.77;;;6.50;;
20497;SDS011;10407;53.238;10.448;2023-02-01T11:25:22;92.77;;;7.63;;
20497;SDS011;10407;53.238;10.448;2023-02-01T11:27:51;82.57;;;7.33;;
20497;SDS011;10407;53.238;10.448;2023-02-01T11:33:01;80.73;;;6.27;;
20497;SDS011;10407;53.238;10.448;2023-02-01T11:35:31;83.60;;;5.90;;
20497;SDS011;10407;53.238;10.448;2023-02-01T11:38:00;92.33;;;8.37;;
20497;SDS011;10407;53.238;10.448;2023-02-01T11:40:39;87.20;;;6.73;;
20497;SDS011;10407;53.238;10.448;2023-02-01T11:43:12;88.77;;;6.53;;
20497;SDS011;10407;53.238;10.448;2023-02-01T11:45:41;79.03;;;5.90;;
20497;SDS011;10407;53.238;10.448;2023-02-01T11:48:15;90.53;;;6.93;;
20497;SDS011;10407;53.238;10.448;2023-02-01T11:50:44;78.97;;;5.50;;
20497;SDS011;10407;53.238;10.448;2023-02-01T11:53:23;83.93;;;6.00;;
20497;SDS011;10407;53.238;10.448;2023-02-01T11:56:02;84.10;;;6.23;;
20497;SDS011;10407;53.238;10.448;2023-02-01T12:04:13;84.10;;;5.80;;
20497;SDS011;10407;53.238;10.448;2023-02-01T12:06:47;85.37;;;6.87;;
20497;SDS011;10407;53.238;10.448;2023-02-01T12:09:34;91.77;;;6.60;;
20497;SDS011;10407;53.238;10.448;2023-02-01T12:12:22;83.20;;;6.20;;
20497;SDS011;10407;53.238;10.448;2023-02-01T12:20:27;86.70;;;6.73;;
20497;SDS011;10407;53.238;10.448;2023-02-01T12:23:14;82.10;;;7.13;;
20497;SDS011;10407;53.238;10.448;2023-02-01T12:28:30;79.23;;;5.63;;
20497;SDS011;10407;53.238;10.448;2023-02-01T12:31:20;76.50;;;5.77;;
20497;SDS011;10407;53.238;10.448;2023-02-01T12:34:01;74.30;;;4.37;;
20497;SDS011;10407;53.238;10.448;2023-02-01T12:42:14;77.77;;;4.90;;
20497;SDS011;10407;53.238;10.448;2023-02-01T12:44:54;72.27;;;4.60;;
20497;SDS011;10407;53.238;10.448;2023-02-01T12:47:41;72.50;;;4.40;;
20497;SDS011;10407;53.238;10.448;2023-02-01T12:50:31;72.70;;;4.97;;
20497;SDS011;10407;53.238;10.448;2023-02-01T12:53:15;71.40;;;4.07;;
20497;SDS011;10407;53.238;10.448;2023-02-01T12:55:43;74.30;;;4.13;;
20497;SDS011;10407;53.238;10.448;2023-02-01T12:58:18;72.50;;;4.43;;
20497;SDS011;10407;53.238;10.448;2023-02-01T13:01:12;75.60;;;5.23;;
20497;SDS011;10407;53.238;10.448;2023-02-01T13:03:38;75.57;;;4.00;;
20497;SDS011;10407;53.238;10.448;2023-02-01T13:06:21;72.13;;;4.23;;
20497;SDS011;10407;53.238;10.448;2023-02-01T13:11:44;76.27;;;4.17;;
20497;SDS011;10407;53.238;10.448;2023-02-01T13:14:22;72.50;;;4.63;;
20497;SDS011;10407;53.238;10.448;2023-02-01T13:19:54;72.17;;;4.37;;
20497;SDS011;10407;53.238;10.448;2023-02-01T13:22:39;78.70;;;6.73;;
20497;SDS011;10407;53.238;10.448;2023-02-01T13:25:27;72.30;;;4.43;;
20497;SDS011;10407;53.238;10.448;2023-02-01T13:28:00;73.03;;;4.20;;
20497;SDS011;10407;53.238;10.448;2023-02-01T13:40:16;70.90;;;4.20;;
20497;SDS011;10407;53.238;10.448;2023-02-01T13:42:27;71.57;;;3.73;;
20497;SDS011;10407;53.238;10.448;2023-02-01T13:44:46;70.77;;;3.90;;
20497;SDS011;10407;53.238;10.448;2023-02-01T13:47:22;70.97;;;4.10;;
20497;SDS011;10407;53.238;10.448;2023-02-01T13:49:57;72.77;;;4.30;;
20497;SDS011;10407;53.238;10.448;2023-02-01T13:52:27;72.33;;;4.30;;
20497;SDS011;10407;53.238;10.448;2023-02-01T13:57:48;72.20;;;4.50;;
20497;SDS011;10407;53.238;10.448;2023-02-01T14:16:20;71.37;;;4.40;;
20497;SDS011;10407;53.238;10.448;2023-02-01T14:23:58;72.83;;;5.07;;
20497;SDS011;10407;53.238;10.448;2023-02-01T14:26:28;73.43;;;5.23;;
20497;SDS011;10407;53.238;10.448;2023-02-01T14:31:52;73.20;;;4.27;;
20497;SDS011;10407;53.238;10.448;2023-02-01T14:34:48;75.40;;;5.97;;
20497;SDS011;10407;53.238;10.448;2023-02-01T14:47:48;73.27;;;5.00;;
20497;SDS011;10407;53.238;10.448;2023-02-01T15:00:52;86.23;;;10.13;;
20497;SDS011;10407;53.238;10.448;2023-02-01T15:03:31;77.97;;;4.83;;
20497;SDS011;10407;53.238;10.448;2023-02-01T15:08:57;74.47;;;5.40;;
20497;SDS011;10407;53.238;10.448;2023-02-01T15:11:26;76.50;;;4.93;;
20497;SDS011;10407;53.238;10.448;2023-02-01T15:13:54;79.60;;;5.63;;
20497;SDS011;10407;53.238;10.448;2023-02-01T15:16:24;71.10;;;4.10;;
20497;SDS011;10407;53.238;10.448;2023-02-01T15:19:14;76.70;;;4.30;;
20497;SDS011;10407;53.238;10.448;2023-02-01T15:21:41;76.47;;;6.47;;
20497;SDS011;10407;53.238;10.448;2023-02-01T15:24:17;73.80;;;3.93;;
20497;SDS011;10407;53.238;10.448;2023-02-01T15:26:46;74.40;;;4.83;;
20497;SDS011;10407;53.238;10.448;2023-02-01T15:29:14;80.00;;;5.37;;
20497;SDS011;10407;53.238;10.448;2023-02-01T15:31:43;72.80;;;4.43;;
20497;SDS011;10407;53.238;10.448;2023-02-01T15:34:13;78.63;;;4.47;;
20497;SDS011;10407;53.238;10.448;2023-02-01T15:36:41;74.20;;;4.30;;
20497;SDS011;10407;53.238;10.448;2023-02-01T15:41:46;79.13;;;5.07;;
20497;SDS011;10407;53.238;10.448;2023-02-01T15:44:29;76.57;;;5.13;;
20497;SDS011;10407;53.238;10.448;2023-02-01T15:47:05;72.40;;;4.23;;
20497;SDS011;10407;53.238;10.448;2023-02-01T15:49:37;77.83;;;5.33;;
20497;SDS011;10407;53.238;10.448;2023-02-01T15:52:17;75.27;;;4.77;;
20497;SDS011;10407;53.238;10.448;2023-02-01T15:54:58;77.50;;;5.20;;
20497;SDS011;10407;53.238;10.448;2023-02-01T15:57:33;76.50;;;4.60;;
20497;SDS011;10407;53.238;10.448;2023-02-01T16:00:03;75.10;;;4.73;;
20497;SDS011;10407;53.238;10.448;2023-02-01T16:02:34;76.80;;;5.60;;
20497;SDS011;10407;53.238;10.448;2023-02-01T16:05:05;78.33;;;5.10;;
20497;SDS011;10407;53.238;10.448;2023-02-01T16:07:35;89.80;;;5.80;;
20497;SDS011;10407;53.238;10.448;2023-02-01T16:10:17;79.43;;;4.40;;
20497;SDS011;10407;53.238;10.448;2023-02-01T16:12:34;78.23;;;5.77;;
20497;SDS011;10407;53.238;10.448;2023-02-01T16:15:07;82.60;;;5.50;;
20497;SDS011;10407;53.238;10.448;2023-02-01T16:17:35;79.03;;;5.90;;
20497;SDS011;10407;53.238;10.448;2023-02-01T16:20:02;83.37;;;5.47;;
20497;SDS011;10407;53.238;10.448;2023-02-01T16:22:31;76.67;;;5.70;;
20497;SDS011;10407;53.238;10.448;2023-02-01T16:24:59;78.43;;;5.50;;
20497;SDS011;10407;53.238;10.448;2023-02-01T16:27:27;78.77;;;5.07;;
20497;SDS011;10407;53.238;10.448;2023-02-01T16:29:55;78.23;;;5.47;;
20497;SDS011;10407;53.238;10.448;2023-02-01T16:32:22;81.03;;;6.40;;
20497;SDS011;10407;53.238;10.448;2023-02-01T16:34:52;80.63;;;6.07;;
20497;SDS011;10407;53.238;10.448;2023-02-01T16:37:20;81.37;;;5.97;;
20497;SDS011;10407;53.238;10.448;2023-02-01T16:39:50;84.30;;;6.00;;
20497;SDS011;10407;53.238;10.448;2023-02-01T16:42:18;79.50;;;6.30;;
20497;SDS011;10407;53.238;10.448;2023-02-01T16:44:45;88.07;;;8.40;;
20497;SDS011;10407;53.238;10.448;2023-02-01T16:47:18;83.93;;;9.13;;
20497;SDS011;10407;53.238;10.448;2023-02-01T16:49:46;90.43;;;9.67;;